sensor_id;sensor_type;location;lat;lon;timestamp;temperature;humidity
18839;DHT22;9548;56.920;14.804;2023-02-18T00:00:28;5.40;99.90
18839;DHT22;9548;56.920;14.804;2023-02-18T00:02:55;5.40;99.90
18839;DHT22;9548;56.920;14.804;2023-02-18T00:05:22;5.40;99.90
18839;DHT22;9548;56.920;14.804;2023-02-18T00:07:49;5.40;99.90
18839;DHT22;9548;56.920;14.804;2023-02-18T00:10:16;5.50;99.90
18839;DHT22;9548;56.920;14.804;2023-02-18T00:12:44;5.50;99.90
18839;DHT22;9548;56.920;14.804;2023-02-18T00:15:12;5.50;99.90
18839;DHT22;9548;56.920;14.804;2023-02-18T00:17:39;5.50;99.90
18839;DHT22;9548;56.920;14.804;2023-02-18T00:20:07;5.50;99.90
18839;DHT22;9548;56.920;14.804;2023-02-18T00:22:34;5.50;99.90
18839;DHT22;9548;56.920;14.804;2023-02-18T00:25:01;5.50;99.90
18839;DHT22;9548;56.920;14.804;2023-02-18T00:27:28;5.40;99.90
18839;DHT22;9548;56.920;14.804;2023-02-18T00:29:54;5.30;99.90
18839;DHT22;9548;56.920;14.804;2023-02-18T00:32:23;5.20;99.90
18839;DHT22;9548;56.920;14.804;2023-02-18T00:34:50;5.20;99.90
18839;DHT22;9548;56.920;14.804;2023-02-18T00:37:16;5.20;99.90
18839;DHT22;9548;56.920;14.804;2023-02-18T00:39:43;5.10;99.90
18839;DHT22;9548;56.920;14.804;2023-02-18T00:42:10;5.10;99.90
18839;DHT22;9548;56.920;14.804;2023-02-18T00:44:38;5.10;99.90
18839;DHT22;9548;56.920;14.804;2023-02-18T00:47:06;5.10;99.90
18839;DHT22;9548;56.920;14.804;2023-02-18T00:49:34;5.10;99.90
18839;DHT22;9548;56.920;14.804;2023-02-18T00:52:01;5.20;99.90
18839;DHT22;9548;56.920;14.804;2023-02-18T00:54:28;5.20;99.90
18839;DHT22;9548;56.920;14.804;2023-02-18T00:56:55;5.30;99.90
18839;DHT22;9548;56.920;14.804;2023-02-18T00:59:22;5.30;99.90
18839;DHT22;9548;56.920;14.804;2023-02-18T01:01:49;5.30;99.90
18839;DHT22;9548;56.920;14.804;2023-02-18T01:04:16;5.40;99.90
18839;DHT22;9548;56.920;14.804;2023-02-18T01:06:44;5.40;99.90
18839;DHT22;9548;56.920;14.804;2023-02-18T01:09:11;5.50;99.90
18839;DHT22;9548;56.920;14.804;2023-02-18T01:11:38;5.50;99.90
18839;DHT22;9548;56.920;14.804;2023-02-18T01:14:05;5.50;99.90
18839;DHT22;9548;56.920;14.804;2023-02-18T01:16:32;5.50;99.90
18839;DHT22;9548;56.920;14.804;2023-02-18T01:18:59;5.40;99.90
18839;DHT22;9548;56.920;14.804;2023-02-18T01:21:26;5.40;99.90
18839;DHT22;9548;56.920;14.804;2023-02-18T01:23:54;5.40;99.90
18839;DHT22;9548;56.920;14.804;2023-02-18T01:26:22;5.40;99.90
18839;DHT22;9548;56.920;14.804;2023-02-18T01:28:49;5.40;99.90
18839;DHT22;9548;56.920;14.804;2023-02-18T01:31:16;5.40;99.90
18839;DHT22;9548;56.920;14.804;2023-02-18T01:33:43;5.40;99.90
18839;DHT22;9548;56.920;14.804;2023-02-18T01:36:10;5.40;99.90
18839;DHT22;9548;56.920;14.804;2023-02-18T01:38:37;5.40;99.90
18839;DHT22;9548;56.920;14.804;2023-02-18T01:41:06;5.30;99.90
18839;DHT22;9548;56.920;14.804;2023-02-18T01:43:33;5.40;99.90
18839;DHT22;9548;56.920;14.804;2023-02-18T01:46:16;5.40;99.90
18839;DHT22;9548;56.920;14.804;2023-02-18T01:48:47;5.40;99.90
18839;DHT22;9548;56.920;14.804;2023-02-18T01:51:17;5.40;99.90
18839;DHT22;9548;56.920;14.804;2023-02-18T01:53:50;5.40;99.90
18839;DHT22;9548;56.920;14.804;2023-02-18T01:56:23;5.40;99.90
18839;DHT22;9548;56.920;14.804;2023-02-18T01:58:54;5.30;99.90
18839;DHT22;9548;56.920;14.804;2023-02-18T02:01:22;5.40;99.90
18839;DHT22;9548;56.920;14.804;2023-02-18T02:03:49;5.40;99.90
18839;DHT22;9548;56.920;14.804;2023-02-18T02:06:18;5.30;99.90
18839;DHT22;9548;56.920;14.804;2023-02-18T02:08:47;5.30;99.90
18839;DHT22;9548;56.920;14.804;2023-02-18T02:11:23;5.30;99.90
18839;DHT22;9548;56.920;14.804;2023-02-18T02:14:01;5.30;99.90
18839;DHT22;9548;56.920;14.804;2023-02-18T02:16:39;5.30;99.90
18839;DHT22;9548;56.920;14.804;2023-02-18T02:25:07;5.20;99.90
18839;DHT22;9548;56.920;14.804;2023-02-18T02:30:57;5.30;99.90
18839;DHT22;9548;56.920;14.804;2023-02-18T02:33:55;5.30;99.90
18839;DHT22;9548;56.920;14.804;2023-02-18T02:36:30;5.20;99.90
18839;DHT22;9548;56.920;14.804;2023-02-18T02:39:04;5.20;99.90
18839;DHT22;9548;56.920;14.804;2023-02-18T02:41:43;5.20;99.90
18839;DHT22;9548;56.920;14.804;2023-02-18T02:44:19;5.20;99.90
18839;DHT22;9548;56.920;14.804;2023-02-18T02:46:47;5.30;99.90
18839;DHT22;9548;56.920;14.804;2023-02-18T02:49:31;5.20;99.90
18839;DHT22;9548;56.920;14.804;2023-02-18T02:52:07;5.20;99.90
18839;DHT22;9548;56.920;14.804;2023-02-18T02:54:35;5.20;99.90
18839;DHT22;9548;56.920;14.804;2023-02-18T02:57:36;5.20;99.90
18839;DHT22;9548;56.920;14.804;2023-02-18T02:59:58;5.10;99.90
18839;DHT22;9548;56.920;14.804;2023-02-18T03:02:31;5.10;99.90
18839;DHT22;9548;56.920;14.804;2023-02-18T03:05:12;5.20;99.90
18839;DHT22;9548;56.920;14.804;2023-02-18T03:07:58;5.20;99.90
18839;DHT22;9548;56.920;14.804;2023-02-18T03:10:38;5.10;99.90
18839;DHT22;9548;56.920;14.804;2023-02-18T03:13:11;5.10;99.90
18839;DHT22;9548;56.920;14.804;2023-02-18T03:15:48;5.10;99.90
18839;DHT22;9548;56.920;14.804;2023-02-18T03:18:19;5.10;99.90
18839;DHT22;9548;56.920;14.804;2023-02-18T03:20:52;5.00;99.90
18839;DHT22;9548;56.920;14.804;2023-02-18T03:23:23;5.00;99.90
18839;DHT22;9548;56.920;14.804;2023-02-18T03:25:53;5.00;99.90
18839;DHT22;9548;56.920;14.804;2023-02-18T03:28:23;5.00;99.90
18839;DHT22;9548;56.920;14.804;2023-02-18T03:30:57;5.00;99.90
18839;DHT22;9548;56.920;14.804;2023-02-18T03:33:27;4.90;99.90
18839;DHT22;9548;56.920;14.804;2023-02-18T03:35:56;4.90;99.90
18839;DHT22;9548;56.920;14.804;2023-02-18T03:38:26;4.80;99.90
18839;DHT22;9548;56.920;14.804;2023-02-18T03:40:55;4.70;99.90
18839;DHT22;9548;56.920;14.804;2023-02-18T03:43:22;4.70;99.90
18839;DHT22;9548;56.920;14.804;2023-02-18T03:45:50;4.60;99.90
18839;DHT22;9548;56.920;14.804;2023-02-18T03:48:18;4.40;99.90
18839;DHT22;9548;56.920;14.804;2023-02-18T03:50:45;4.40;99.90
18839;DHT22;9548;56.920;14.804;2023-02-18T03:53:12;4.30;99.90
18839;DHT22;9548;56.920;14.804;2023-02-18T03:55:39;4.30;99.90
18839;DHT22;9548;56.920;14.804;2023-02-18T03:58:07;4.20;99.90
18839;DHT22;9548;56.920;14.804;2023-02-18T04:00:34;4.20;99.90
18839;DHT22;9548;56.920;14.804;2023-02-18T04:03:01;4.20;99.90
18839;DHT22;9548;56.920;14.804;2023-02-18T04:05:29;4.20;99.90
18839;DHT22;9548;56.920;14.804;2023-02-18T04:07:56;4.10;99.90
18839;DHT22;9548;56.920;14.804;2023-02-18T04:10:23;4.10;99.90
18839;DHT22;9548;56.920;14.804;2023-02-18T04:12:50;4.10;99.90
18839;DHT22;9548;56.920;14.804;2023-02-18T04:15:17;4.00;99.90
18839;DHT22;9548;56.920;14.804;2023-02-18T04:17:44;4.00;99.90
18839;DHT22;9548;56.920;14.804;2023-02-18T04:20:11;3.90;99.90
18839;DHT22;9548;56.920;14.804;2023-02-18T04:22:40;3.90;99.90
18839;DHT22;9548;56.920;14.804;2023-02-18T04:25:07;3.90;99.90
18839;DHT22;9548;56.920;14.804;2023-02-18T04:27:34;3.80;99.90
18839;DHT22;9548;56.920;14.804;2023-02-18T04:30:01;3.80;99.90
18839;DHT22;9548;56.920;14.804;2023-02-18T04:32:28;3.70;99.90
18839;DHT22;9548;56.920;14.804;2023-02-18T04:34:55;3.70;99.90
18839;DHT22;9548;56.920;14.804;2023-02-18T04:37:22;3.60;99.90
18839;DHT22;9548;56.920;14.804;2023-02-18T04:39:50;3.60;99.90
18839;DHT22;9548;56.920;14.804;2023-02-18T04:42:17;3.60;99.90
18839;DHT22;9548;56.920;14.804;2023-02-18T04:44:44;3.60;99.90
18839;DHT22;9548;56.920;14.804;2023-02-18T04:47:11;3.60;99.90
18839;DHT22;9548;56.920;14.804;2023-02-18T04:49:38;3.60;99.90
18839;DHT22;9548;56.920;14.804;2023-02-18T04:52:05;3.60;99.90
18839;DHT22;9548;56.920;14.804;2023-02-18T04:54:32;3.50;99.90
18839;DHT22;9548;56.920;14.804;2023-02-18T04:57:00;3.40;99.90
18839;DHT22;9548;56.920;14.804;2023-02-18T04:59:27;3.40;99.90
18839;DHT22;9548;56.920;14.804;2023-02-18T05:01:54;3.40;99.90
18839;DHT22;9548;56.920;14.804;2023-02-18T05:04:21;3.40;99.90
18839;DHT22;9548;56.920;14.804;2023-02-18T05:06:48;3.30;99.90
18839;DHT22;9548;56.920;14.804;2023-02-18T05:09:15;3.30;99.90
18839;DHT22;9548;56.920;14.804;2023-02-18T05:11:43;3.30;99.90
18839;DHT22;9548;56.920;14.804;2023-02-18T05:14:11;3.30;99.90
18839;DHT22;9548;56.920;14.804;2023-02-18T05:16:38;3.20;99.90
18839;DHT22;9548;56.920;14.804;2023-02-18T05:19:05;3.20;99.90
18839;DHT22;9548;56.920;14.804;2023-02-18T05:21:32;3.30;99.90
18839;DHT22;9548;56.920;14.804;2023-02-18T05:23:59;3.30;99.90
18839;DHT22;9548;56.920;14.804;2023-02-18T05:26:26;3.30;99.90
18839;DHT22;9548;56.920;14.804;2023-02-18T05:28:53;3.20;99.90
18839;DHT22;9548;56.920;14.804;2023-02-18T05:31:23;3.20;99.90
18839;DHT22;9548;56.920;14.804;2023-02-18T05:33:50;3.30;99.90
18839;DHT22;9548;56.920;14.804;2023-02-18T05:36:17;3.20;99.90
18839;DHT22;9548;56.920;14.804;2023-02-18T05:38:43;3.20;99.90
18839;DHT22;9548;56.920;14.804;2023-02-18T05:41:10;3.20;99.90
18839;DHT22;9548;56.920;14.804;2023-02-18T05:43:37;3.20;99.90
18839;DHT22;9548;56.920;14.804;2023-02-18T05:46:18;3.20;99.90
18839;DHT22;9548;56.920;14.804;2023-02-18T05:48:46;3.10;99.90
18839;DHT22;9548;56.920;14.804;2023-02-18T05:51:14;3.10;99.90
18839;DHT22;9548;56.920;14.804;2023-02-18T05:53:41;3.20;99.90
18839;DHT22;9548;56.920;14.804;2023-02-18T05:56:08;3.20;99.90
18839;DHT22;9548;56.920;14.804;2023-02-18T05:58:35;3.10;99.90
18839;DHT22;9548;56.920;14.804;2023-02-18T06:01:02;3.00;99.90
18839;DHT22;9548;56.920;14.804;2023-02-18T06:03:29;2.90;99.90
18839;DHT22;9548;56.920;14.804;2023-02-18T06:05:57;3.00;99.90
18839;DHT22;9548;56.920;14.804;2023-02-18T06:08:24;3.10;99.90
18839;DHT22;9548;56.920;14.804;2023-02-18T06:10:51;3.00;99.90
18839;DHT22;9548;56.920;14.804;2023-02-18T06:13:18;3.00;99.90
18839;DHT22;9548;56.920;14.804;2023-02-18T06:15:45;2.90;99.90
18839;DHT22;9548;56.920;14.804;2023-02-18T06:18:12;3.00;99.90
18839;DHT22;9548;56.920;14.804;2023-02-18T06:20:39;3.00;99.90
18839;DHT22;9548;56.920;14.804;2023-02-18T06:23:07;2.90;99.90
18839;DHT22;9548;56.920;14.804;2023-02-18T06:25:34;2.80;99.90
18839;DHT22;9548;56.920;14.804;2023-02-18T06:28:01;2.80;99.90
18839;DHT22;9548;56.920;14.804;2023-02-18T06:30:28;2.90;99.90
18839;DHT22;9548;56.920;14.804;2023-02-18T06:32:55;2.80;99.90
18839;DHT22;9548;56.920;14.804;2023-02-18T06:35:22;2.80;99.90
18839;DHT22;9548;56.920;14.804;2023-02-18T06:37:49;2.70;99.90
18839;DHT22;9548;56.920;14.804;2023-02-18T06:40:17;2.80;99.90
18839;DHT22;9548;56.920;14.804;2023-02-18T06:42:44;2.80;99.90
18839;DHT22;9548;56.920;14.804;2023-02-18T06:45:11;2.90;99.90
18839;DHT22;9548;56.920;14.804;2023-02-18T06:47:38;2.80;99.90
18839;DHT22;9548;56.920;14.804;2023-02-18T06:50:06;2.90;99.90
18839;DHT22;9548;56.920;14.804;2023-02-18T06:52:33;2.80;99.90
18839;DHT22;9548;56.920;14.804;2023-02-18T06:55:02;2.80;99.90
18839;DHT22;9548;56.920;14.804;2023-02-18T06:57:31;2.80;99.90
18839;DHT22;9548;56.920;14.804;2023-02-18T06:59:58;2.90;99.90
18839;DHT22;9548;56.920;14.804;2023-02-18T07:02:26;2.90;99.90
18839;DHT22;9548;56.920;14.804;2023-02-18T07:04:53;2.90;99.90
18839;DHT22;9548;56.920;14.804;2023-02-18T07:07:20;2.90;99.90
18839;DHT22;9548;56.920;14.804;2023-02-18T07:09:47;2.90;99.90
18839;DHT22;9548;56.920;14.804;2023-02-18T07:12:17;2.90;99.90
18839;DHT22;9548;56.920;14.804;2023-02-18T07:14:48;2.90;99.90
18839;DHT22;9548;56.920;14.804;2023-02-18T07:17:15;2.90;99.90
18839;DHT22;9548;56.920;14.804;2023-02-18T07:19:42;2.90;99.90
18839;DHT22;9548;56.920;14.804;2023-02-18T07:22:09;3.00;99.90
18839;DHT22;9548;56.920;14.804;2023-02-18T07:24:35;3.00;99.90
18839;DHT22;9548;56.920;14.804;2023-02-18T07:27:03;3.10;99.90
18839;DHT22;9548;56.920;14.804;2023-02-18T07:29:29;3.00;99.90
18839;DHT22;9548;56.920;14.804;2023-02-18T07:31:58;3.00;99.90
18839;DHT22;9548;56.920;14.804;2023-02-18T07:34:25;3.00;99.90
18839;DHT22;9548;56.920;14.804;2023-02-18T07:36:52;3.00;99.90
18839;DHT22;9548;56.920;14.804;2023-02-18T07:39:19;3.10;99.90
18839;DHT22;9548;56.920;14.804;2023-02-18T07:41:46;3.10;99.90
18839;DHT22;9548;56.920;14.804;2023-02-18T07:44:13;3.20;99.90
18839;DHT22;9548;56.920;14.804;2023-02-18T07:46:40;3.20;99.90
18839;DHT22;9548;56.920;14.804;2023-02-18T07:49:08;3.20;99.90
18839;DHT22;9548;56.920;14.804;2023-02-18T07:51:35;3.20;99.90
18839;DHT22;9548;56.920;14.804;2023-02-18T07:54:04;3.30;99.90
18839;DHT22;9548;56.920;14.804;2023-02-18T07:56:31;3.30;99.90
18839;DHT22;9548;56.920;14.804;2023-02-18T07:58:58;3.30;99.90
18839;DHT22;9548;56.920;14.804;2023-02-18T08:01:25;3.40;99.90
18839;DHT22;9548;56.920;14.804;2023-02-18T08:03:52;3.50;99.90
18839;DHT22;9548;56.920;14.804;2023-02-18T08:06:24;3.50;99.90
18839;DHT22;9548;56.920;14.804;2023-02-18T08:08:51;3.60;99.90
18839;DHT22;9548;56.920;14.804;2023-02-18T08:11:18;3.60;99.90
18839;DHT22;9548;56.920;14.804;2023-02-18T08:13:46;3.70;99.90
18839;DHT22;9548;56.920;14.804;2023-02-18T08:16:13;3.70;99.90
18839;DHT22;9548;56.920;14.804;2023-02-18T08:18:40;3.80;99.90
18839;DHT22;9548;56.920;14.804;2023-02-18T08:21:07;3.90;99.90
18839;DHT22;9548;56.920;14.804;2023-02-18T08:23:35;4.00;99.90
18839;DHT22;9548;56.920;14.804;2023-02-18T08:26:02;4.00;99.90
18839;DHT22;9548;56.920;14.804;2023-02-18T08:28:29;4.10;99.90
18839;DHT22;9548;56.920;14.804;2023-02-18T08:30:57;4.20;99.90
18839;DHT22;9548;56.920;14.804;2023-02-18T08:33:24;4.30;99.90
18839;DHT22;9548;56.920;14.804;2023-02-18T08:35:53;4.40;99.90
18839;DHT22;9548;56.920;14.804;2023-02-18T08:38:21;4.50;99.90
18839;DHT22;9548;56.920;14.804;2023-02-18T08:40:50;4.60;99.90
18839;DHT22;9548;56.920;14.804;2023-02-18T08:43:17;4.70;99.90
18839;DHT22;9548;56.920;14.804;2023-02-18T08:45:44;4.80;99.90
18839;DHT22;9548;56.920;14.804;2023-02-18T08:48:12;4.90;99.90
18839;DHT22;9548;56.920;14.804;2023-02-18T08:50:41;5.00;99.90
18839;DHT22;9548;56.920;14.804;2023-02-18T08:53:07;5.10;99.90
18839;DHT22;9548;56.920;14.804;2023-02-18T08:55:35;5.00;99.90
18839;DHT22;9548;56.920;14.804;2023-02-18T08:58:07;5.00;99.90
18839;DHT22;9548;56.920;14.804;2023-02-18T09:00:34;4.90;99.90
18839;DHT22;9548;56.920;14.804;2023-02-18T09:03:02;4.80;99.90
18839;DHT22;9548;56.920;14.804;2023-02-18T09:05:29;4.70;99.90
18839;DHT22;9548;56.920;14.804;2023-02-18T09:07:56;4.70;99.90
18839;DHT22;9548;56.920;14.804;2023-02-18T09:10:23;4.70;99.90
18839;DHT22;9548;56.920;14.804;2023-02-18T09:12:50;4.70;99.90
18839;DHT22;9548;56.920;14.804;2023-02-18T09:15:19;4.80;99.90
18839;DHT22;9548;56.920;14.804;2023-02-18T09:17:46;4.90;99.90
18839;DHT22;9548;56.920;14.804;2023-02-18T09:20:13;5.00;99.90
18839;DHT22;9548;56.920;14.804;2023-02-18T09:22:40;5.20;99.90
18839;DHT22;9548;56.920;14.804;2023-02-18T09:25:07;5.20;99.90
18839;DHT22;9548;56.920;14.804;2023-02-18T09:27:34;5.40;99.90
18839;DHT22;9548;56.920;14.804;2023-02-18T09:30:01;5.40;99.90
18839;DHT22;9548;56.920;14.804;2023-02-18T09:32:29;5.50;99.90
18839;DHT22;9548;56.920;14.804;2023-02-18T09:34:56;5.60;99.90
18839;DHT22;9548;56.920;14.804;2023-02-18T09:37:23;5.60;99.90
18839;DHT22;9548;56.920;14.804;2023-02-18T09:39:50;5.60;99.90
18839;DHT22;9548;56.920;14.804;2023-02-18T09:42:26;5.70;99.90
18839;DHT22;9548;56.920;14.804;2023-02-18T09:44:55;5.80;99.90
18839;DHT22;9548;56.920;14.804;2023-02-18T09:47:31;5.90;99.90
18839;DHT22;9548;56.920;14.804;2023-02-18T09:50:02;5.90;99.90
18839;DHT22;9548;56.920;14.804;2023-02-18T09:52:33;6.00;99.90
18839;DHT22;9548;56.920;14.804;2023-02-18T09:55:17;6.00;99.90
18839;DHT22;9548;56.920;14.804;2023-02-18T09:57:47;6.10;99.90
18839;DHT22;9548;56.920;14.804;2023-02-18T10:00:19;6.20;99.90
18839;DHT22;9548;56.920;14.804;2023-02-18T10:02:53;6.50;99.90
18839;DHT22;9548;56.920;14.804;2023-02-18T10:05:21;6.80;99.90
18839;DHT22;9548;56.920;14.804;2023-02-18T10:07:50;7.10;99.90
18839;DHT22;9548;56.920;14.804;2023-02-18T10:10:22;7.30;99.90
18839;DHT22;9548;56.920;14.804;2023-02-18T10:12:53;7.10;99.90
18839;DHT22;9548;56.920;14.804;2023-02-18T10:15:22;7.10;99.90
18839;DHT22;9548;56.920;14.804;2023-02-18T10:17:51;7.10;99.90
18839;DHT22;9548;56.920;14.804;2023-02-18T10:20:23;7.20;99.90
18839;DHT22;9548;56.920;14.804;2023-02-18T10:22:52;7.30;99.90
18839;DHT22;9548;56.920;14.804;2023-02-18T10:25:22;7.30;99.90
18839;DHT22;9548;56.920;14.804;2023-02-18T10:27:51;7.40;99.90
18839;DHT22;9548;56.920;14.804;2023-02-18T10:30:22;7.90;99.90
18839;DHT22;9548;56.920;14.804;2023-02-18T10:33:00;8.10;99.90
18839;DHT22;9548;56.920;14.804;2023-02-18T10:35:39;8.30;99.90
18839;DHT22;9548;56.920;14.804;2023-02-18T10:38:13;8.40;99.90
18839;DHT22;9548;56.920;14.804;2023-02-18T10:40:49;8.60;99.90
18839;DHT22;9548;56.920;14.804;2023-02-18T10:43:24;8.90;99.90
18839;DHT22;9548;56.920;14.804;2023-02-18T10:46:01;9.50;99.90
18839;DHT22;9548;56.920;14.804;2023-02-18T10:48:46;9.80;99.90
18839;DHT22;9548;56.920;14.804;2023-02-18T10:51:20;9.90;99.90
18839;DHT22;9548;56.920;14.804;2023-02-18T10:53:49;9.60;99.90
18839;DHT22;9548;56.920;14.804;2023-02-18T10:56:36;10.00;99.90
18839;DHT22;9548;56.920;14.804;2023-02-18T10:59:10;10.60;99.90
18839;DHT22;9548;56.920;14.804;2023-02-18T11:01:37;11.50;99.90
18839;DHT22;9548;56.920;14.804;2023-02-18T11:04:12;11.80;99.90
18839;DHT22;9548;56.920;14.804;2023-02-18T11:06:41;11.50;99.90
18839;DHT22;9548;56.920;14.804;2023-02-18T11:09:25;11.60;99.90
18839;DHT22;9548;56.920;14.804;2023-02-18T11:11:59;11.10;99.90
18839;DHT22;9548;56.920;14.804;2023-02-18T11:14:37;10.60;99.90
18839;DHT22;9548;56.920;14.804;2023-02-18T11:17:14;10.90;99.90
18839;DHT22;9548;56.920;14.804;2023-02-18T11:19:51;10.90;99.90
18839;DHT22;9548;56.920;14.804;2023-02-18T11:22:22;11.00;99.90
18839;DHT22;9548;56.920;14.804;2023-02-18T11:24:54;10.90;99.90
18839;DHT22;9548;56.920;14.804;2023-02-18T11:27:25;11.00;99.90
18839;DHT22;9548;56.920;14.804;2023-02-18T11:29:56;11.00;99.90
18839;DHT22;9548;56.920;14.804;2023-02-18T11:32:26;11.10;99.90
18839;DHT22;9548;56.920;14.804;2023-02-18T11:34:55;11.20;99.90
18839;DHT22;9548;56.920;14.804;2023-02-18T11:37:22;11.60;99.90
18839;DHT22;9548;56.920;14.804;2023-02-18T11:39:52;11.60;99.90
18839;DHT22;9548;56.920;14.804;2023-02-18T11:42:22;12.30;99.90
18839;DHT22;9548;56.920;14.804;2023-02-18T11:44:52;13.00;99.00
18839;DHT22;9548;56.920;14.804;2023-02-18T11:47:23;13.50;98.20
18839;DHT22;9548;56.920;14.804;2023-02-18T11:50:13;13.10;98.40
18839;DHT22;9548;56.920;14.804;2023-02-18T11:52:41;13.70;98.00
18839;DHT22;9548;56.920;14.804;2023-02-18T11:55:15;13.50;97.40
18839;DHT22;9548;56.920;14.804;2023-02-18T11:57:45;13.00;97.60
18839;DHT22;9548;56.920;14.804;2023-02-18T12:00:19;12.80;97.30
18839;DHT22;9548;56.920;14.804;2023-02-18T12:02:48;12.90;97.80
18839;DHT22;9548;56.920;14.804;2023-02-18T12:05:20;12.70;97.80
18839;DHT22;9548;56.920;14.804;2023-02-18T12:07:49;12.50;98.00
18839;DHT22;9548;56.920;14.804;2023-02-18T12:10:21;12.60;97.50
18839;DHT22;9548;56.920;14.804;2023-02-18T12:12:55;13.50;98.10
18839;DHT22;9548;56.920;14.804;2023-02-18T12:15:33;14.10;97.00
18839;DHT22;9548;56.920;14.804;2023-02-18T12:18:15;15.40;96.60
18839;DHT22;9548;56.920;14.804;2023-02-18T12:20:55;15.90;94.20
18839;DHT22;9548;56.920;14.804;2023-02-18T12:23:30;15.50;95.20
18839;DHT22;9548;56.920;14.804;2023-02-18T12:26:07;15.10;93.40
18839;DHT22;9548;56.920;14.804;2023-02-18T12:28:57;14.70;93.60
18839;DHT22;9548;56.920;14.804;2023-02-18T12:31:51;15.40;94.30
18839;DHT22;9548;56.920;14.804;2023-02-18T12:34:40;15.50;93.80
18839;DHT22;9548;56.920;14.804;2023-02-18T12:37:24;15.30;94.00
18839;DHT22;9548;56.920;14.804;2023-02-18T12:40:06;15.30;94.20
18839;DHT22;9548;56.920;14.804;2023-02-18T12:42:46;14.20;94.60
18839;DHT22;9548;56.920;14.804;2023-02-18T12:45:40;14.70;95.00
18839;DHT22;9548;56.920;14.804;2023-02-18T12:48:39;15.30;93.10
18839;DHT22;9548;56.920;14.804;2023-02-18T12:51:18;15.00;93.70
18839;DHT22;9548;56.920;14.804;2023-02-18T12:54:01;16.20;91.80
18839;DHT22;9548;56.920;14.804;2023-02-18T12:56:58;16.20;92.00
18839;DHT22;9548;56.920;14.804;2023-02-18T12:59:50;16.50;91.20
18839;DHT22;9548;56.920;14.804;2023-02-18T13:02:30;15.20;92.30
18839;DHT22;9548;56.920;14.804;2023-02-18T13:05:08;15.40;92.20
18839;DHT22;9548;56.920;14.804;2023-02-18T13:07:46;15.20;92.20
18839;DHT22;9548;56.920;14.804;2023-02-18T13:10:41;15.20;91.70
18839;DHT22;9548;56.920;14.804;2023-02-18T13:13:11;15.50;92.00
18839;DHT22;9548;56.920;14.804;2023-02-18T13:15:42;15.60;91.00
18839;DHT22;9548;56.920;14.804;2023-02-18T13:18:13;14.90;91.10
18839;DHT22;9548;56.920;14.804;2023-02-18T13:20:44;14.50;92.30
18839;DHT22;9548;56.920;14.804;2023-02-18T13:23:17;14.40;91.60
18839;DHT22;9548;56.920;14.804;2023-02-18T13:25:50;14.50;92.00
18839;DHT22;9548;56.920;14.804;2023-02-18T13:28:23;14.00;92.00
18839;DHT22;9548;56.920;14.804;2023-02-18T13:31:00;14.20;92.60
18839;DHT22;9548;56.920;14.804;2023-02-18T13:33:36;14.20;91.60
18839;DHT22;9548;56.920;14.804;2023-02-18T13:36:08;14.00;92.40
18839;DHT22;9548;56.920;14.804;2023-02-18T13:38:55;13.80;92.30
18839;DHT22;9548;56.920;14.804;2023-02-18T13:41:26;13.70;92.70
18839;DHT22;9548;56.920;14.804;2023-02-18T13:43:53;13.90;92.80
18839;DHT22;9548;56.920;14.804;2023-02-18T13:46:23;13.60;92.80
18839;DHT22;9548;56.920;14.804;2023-02-18T13:49:04;13.90;93.10
18839;DHT22;9548;56.920;14.804;2023-02-18T13:51:33;12.70;93.60
18839;DHT22;9548;56.920;14.804;2023-02-18T13:54:12;11.80;95.00
18839;DHT22;9548;56.920;14.804;2023-02-18T13:56:45;11.20;96.10
18839;DHT22;9548;56.920;14.804;2023-02-18T13:59:18;10.50;96.60
18839;DHT22;9548;56.920;14.804;2023-02-18T14:01:49;9.80;98.00
18839;DHT22;9548;56.920;14.804;2023-02-18T14:07:24;9.00;99.90
18839;DHT22;9548;56.920;14.804;2023-02-18T14:09:53;9.00;99.90
18839;DHT22;9548;56.920;14.804;2023-02-18T14:12:34;8.90;99.90
18839;DHT22;9548;56.920;14.804;2023-02-18T14:17:48;9.40;99.90
18839;DHT22;9548;56.920;14.804;2023-02-18T14:23:43;9.60;99.90
18839;DHT22;9548;56.920;14.804;2023-02-18T14:26:23;10.00;99.90
18839;DHT22;9548;56.920;14.804;2023-02-18T14:28:54;9.90;99.50
18839;DHT22;9548;56.920;14.804;2023-02-18T14:31:49;9.90;99.90
18839;DHT22;9548;56.920;14.804;2023-02-18T14:40:36;9.20;99.90
18839;DHT22;9548;56.920;14.804;2023-02-18T14:43:11;8.80;99.90
18839;DHT22;9548;56.920;14.804;2023-02-18T14:45:59;9.10;99.90
18839;DHT22;9548;56.920;14.804;2023-02-18T14:48:49;9.60;99.90
18839;DHT22;9548;56.920;14.804;2023-02-18T14:51:23;9.50;99.90
18839;DHT22;9548;56.920;14.804;2023-02-18T14:53:51;9.40;99.90
18839;DHT22;9548;56.920;14.804;2023-02-18T14:56:20;8.90;99.90
18839;DHT22;9548;56.920;14.804;2023-02-18T14:58:50;8.50;99.90
18839;DHT22;9548;56.920;14.804;2023-02-18T15:01:22;8.10;99.90
18839;DHT22;9548;56.920;14.804;2023-02-18T15:03:51;7.90;99.90
18839;DHT22;9548;56.920;14.804;2023-02-18T15:06:27;7.60;99.90
18839;DHT22;9548;56.920;14.804;2023-02-18T15:08:55;7.40;99.90
18839;DHT22;9548;56.920;14.804;2023-02-18T15:11:25;7.20;99.90
18839;DHT22;9548;56.920;14.804;2023-02-18T15:13:57;7.10;99.90
18839;DHT22;9548;56.920;14.804;2023-02-18T15:16:30;7.00;99.90
18839;DHT22;9548;56.920;14.804;2023-02-18T15:18:59;6.80;99.90
18839;DHT22;9548;56.920;14.804;2023-02-18T15:21:29;6.70;99.90
18839;DHT22;9548;56.920;14.804;2023-02-18T15:24:03;6.60;99.90
18839;DHT22;9548;56.920;14.804;2023-02-18T15:26:31;6.50;99.90
18839;DHT22;9548;56.920;14.804;2023-02-18T15:29:00;6.40;99.90
18839;DHT22;9548;56.920;14.804;2023-02-18T15:31:31;6.30;99.90
18839;DHT22;9548;56.920;14.804;2023-02-18T15:34:02;6.30;99.90
18839;DHT22;9548;56.920;14.804;2023-02-18T15:36:31;6.20;99.90
18839;DHT22;9548;56.920;14.804;2023-02-18T15:38:58;6.10;99.90
18839;DHT22;9548;56.920;14.804;2023-02-18T15:41:24;6.00;99.90
18839;DHT22;9548;56.920;14.804;2023-02-18T15:43:53;5.90;99.90
18839;DHT22;9548;56.920;14.804;2023-02-18T15:46:23;5.80;99.90
18839;DHT22;9548;56.920;14.804;2023-02-18T15:48:53;5.70;99.90
18839;DHT22;9548;56.920;14.804;2023-02-18T15:51:27;5.70;99.90
18839;DHT22;9548;56.920;14.804;2023-02-18T15:53:57;5.60;99.90
18839;DHT22;9548;56.920;14.804;2023-02-18T15:56:29;5.50;99.90
18839;DHT22;9548;56.920;14.804;2023-02-18T15:59:08;5.50;99.90
18839;DHT22;9548;56.920;14.804;2023-02-18T16:01:36;5.30;99.90
18839;DHT22;9548;56.920;14.804;2023-02-18T16:04:05;5.20;99.90
18839;DHT22;9548;56.920;14.804;2023-02-18T16:06:36;5.10;99.90
18839;DHT22;9548;56.920;14.804;2023-02-18T16:09:11;5.10;99.90
18839;DHT22;9548;56.920;14.804;2023-02-18T16:11:40;5.00;99.90
18839;DHT22;9548;56.920;14.804;2023-02-18T16:14:25;4.90;99.90
18839;DHT22;9548;56.920;14.804;2023-02-18T16:17:06;4.90;99.90
18839;DHT22;9548;56.920;14.804;2023-02-18T16:19:38;4.70;99.90
18839;DHT22;9548;56.920;14.804;2023-02-18T16:22:26;4.60;99.90
18839;DHT22;9548;56.920;14.804;2023-02-18T16:24:56;4.50;99.90
18839;DHT22;9548;56.920;14.804;2023-02-18T16:27:30;4.50;99.90
18839;DHT22;9548;56.920;14.804;2023-02-18T16:30:00;4.30;99.90